Albany, Australia
Current Conditions -  °F | °C
As of 7:00 AM on Wednesday 26 Nov 2014 (Local Time) from YABA Reporting Station
Broken Clouds Broken Clouds  
Wind Chill: 64°   Ceiling: 28000
Heat Index: 64°   Visibility: 6mi
Dew Point: 54°   Wind: 16mph
Humidity: 68%   Direction: 70°ENE
Pressure: 30.12"   Gusts: NA
Location:  35.02°S, 117.88°E
Report Text: YABA 252300Z 07014KT 9999 FEW020 BKN280 18/12 Q1020
Loading
Personal Weather Stations






























Interactive Weather Map New forecast layout! Learn more

10-Day Weather Forecast

Advertisements
Track Severe Weather on mobile